createdAt,value
2023-04-02T00:00:00.349Z,124
2023-04-02T00:10:00.376Z,127
2023-04-02T00:20:00.343Z,117
2023-04-02T00:30:00.336Z,106
2023-04-02T00:40:00.379Z,101
2023-04-02T00:50:00.352Z,100
2023-04-02T01:00:00.352Z,103
2023-04-02T01:10:00.346Z,111
2023-04-02T01:20:00.339Z,132
2023-04-02T01:30:00.338Z,141
2023-04-02T01:40:00.331Z,145
2023-04-02T01:50:00.321Z,133
2023-04-02T02:00:00.350Z,120
2023-04-02T02:10:00.345Z,114
2023-04-02T02:20:00.631Z,117
2023-04-02T02:30:00.337Z,116
2023-04-02T02:40:00.380Z,98
2023-04-02T02:50:00.457Z,94
2023-04-02T03:00:00.435Z,95
2023-04-02T03:10:00.319Z,81
2023-04-02T03:20:00.335Z,83
2023-04-02T03:30:00.329Z,80
2023-04-02T03:40:00.394Z,75
2023-04-02T03:50:00.323Z,78
2023-04-02T04:00:00.348Z,63
2023-04-02T04:10:00.335Z,66
2023-04-02T04:20:00.322Z,70
2023-04-02T04:30:00.352Z,73
2023-04-02T04:40:00.352Z,78
2023-04-02T04:50:00.329Z,80
2023-04-02T05:00:00.355Z,102
2023-04-02T05:10:00.368Z,106
2023-04-02T05:20:00.324Z,109
2023-04-02T05:30:00.327Z,116
2023-04-02T05:40:00.346Z,79
2023-04-02T05:50:00.340Z,110
2023-04-02T06:00:00.335Z,120
2023-04-02T06:10:00.330Z,121
2023-04-02T06:20:00.325Z,145
2023-04-02T06:30:00.342Z,154
2023-04-02T06:40:00.373Z,153
2023-04-02T06:50:00.369Z,171
2023-04-02T07:00:00.333Z,175
2023-04-02T07:10:00.331Z,188
2023-04-02T07:20:00.329Z,209
2023-04-02T07:30:00.323Z,218
2023-04-02T07:40:00.362Z,234
2023-04-02T07:50:00.354Z,232
2023-04-02T08:00:00.350Z,248
2023-04-02T08:10:00.335Z,234
2023-04-02T08:20:00.352Z,252
2023-04-02T08:30:00.378Z,259
2023-04-02T08:40:00.339Z,246
2023-04-02T08:50:00.327Z,244
2023-04-02T09:00:00.333Z,221
2023-04-02T09:10:00.324Z,343
2023-04-02T09:20:00.322Z,349
2023-04-02T09:30:00.353Z,469
2023-04-02T09:40:00.336Z,388
2023-04-02T09:50:00.340Z,375
2023-04-02T10:00:00.341Z,399
2023-04-02T10:10:00.322Z,339
2023-04-02T10:20:00.335Z,291
2023-04-02T10:30:00.332Z,261
2023-04-02T10:40:00.337Z,255
2023-04-02T10:50:00.330Z,197
2023-04-02T11:00:00.373Z,205
2023-04-02T11:10:00.338Z,191
2023-04-02T11:20:00.331Z,192
2023-04-02T11:30:00.332Z,186
2023-04-02T11:40:00.401Z,164
2023-04-02T11:50:00.409Z,202
2023-04-02T12:00:00.331Z,142
2023-04-02T12:10:00.327Z,117
2023-04-02T12:20:00.322Z,75
2023-04-02T12:30:00.330Z,74
2023-04-02T12:40:00.470Z,57
2023-04-02T12:50:00.342Z,44
2023-04-02T13:00:00.335Z,71
2023-04-02T13:10:00.330Z,47
2023-04-02T13:20:00.336Z,26
2023-04-02T13:30:00.323Z,30
2023-04-02T13:40:00.322Z,28
2023-04-02T13:50:00.345Z,12
2023-04-02T14:00:00.334Z,33
2023-04-02T14:10:00.328Z,82
2023-04-02T14:20:00.363Z,44
2023-04-02T14:30:00.354Z,88
2023-04-02T14:40:00.339Z,309
2023-04-02T14:50:00.475Z,366
2023-04-02T15:00:00.339Z,412
2023-04-02T15:10:00.373Z,456
2023-04-02T15:20:00.352Z,439
2023-04-02T15:30:00.325Z,432
2023-04-02T15:40:00.341Z,417
2023-04-02T15:50:00.332Z,290
2023-04-02T16:00:00.338Z,210
2023-04-02T16:10:00.325Z,150
2023-04-02T16:20:00.336Z,113
2023-04-02T16:30:00.339Z,210
2023-04-02T16:40:00.349Z,140
2023-04-02T16:50:00.323Z,147
2023-04-02T17:00:00.330Z,179
2023-04-02T17:10:00.331Z,164
2023-04-02T17:20:00.339Z,112
2023-04-02T17:30:00.336Z,120
2023-04-02T17:40:00.334Z,152
2023-04-02T17:50:00.327Z,166
2023-04-02T18:00:00.367Z,178
2023-04-02T18:10:00.326Z,198
2023-04-02T18:20:00.326Z,196
2023-04-02T18:30:00.378Z,150
2023-04-02T18:40:00.392Z,139
2023-04-02T18:50:00.329Z,137
2023-04-02T19:00:00.349Z,355
2023-04-02T19:10:00.342Z,364
2023-04-02T19:20:00.351Z,288
2023-04-02T19:30:00.358Z,214
2023-04-02T19:40:00.354Z,417
2023-04-02T19:50:00.345Z,413
2023-04-02T20:00:00.448Z,254
2023-04-02T20:10:00.329Z,365
2023-04-02T20:20:00.376Z,378
2023-04-02T20:30:00.357Z,260
2023-04-02T20:40:00.347Z,179
2023-04-02T20:50:00.331Z,187
2023-04-02T21:00:00.347Z,236
2023-04-02T21:10:00.341Z,145
2023-04-02T21:20:00.346Z,92
2023-04-02T21:30:00.325Z,67
2023-04-02T21:40:00.336Z,57
2023-04-02T21:50:00.325Z,79
2023-04-02T22:00:00.379Z,79
2023-04-02T22:10:00.383Z,62
2023-04-02T22:20:00.352Z,69
2023-04-02T22:30:00.332Z,63
2023-04-02T22:40:00.391Z,61
2023-04-02T22:50:00.327Z,74
2023-04-02T23:00:00.419Z,160
2023-04-02T23:10:00.318Z,173
2023-04-02T23:20:00.331Z,145
2023-04-02T23:30:00.336Z,122
2023-04-02T23:40:00.335Z,98
2023-04-02T23:50:00.338Z,94
